<?xml version="1.0" encoding="UTF-8" standalone="no" ?>
<gpx xmlns="http://www.topografix.com/GPX/1/1" xmlns:xsi="http://www.w3.org/2001/XMLSchema-instance" xsi:schemaLocation="http://www.topografix.com/GPX/1/1 http://www.topografix.com/GPX/1/1/gpx.xsd" version="1.1" creator="VisuGPX - https://www.visugpx.com">
  <metadata>
    <name>Randox Prépa 25-26 Proposition R1 </name>
    <desc><![CDATA[Randox Prépa 25-26 Proposition R1 
Randonnée à Montamat (32) de 17.6Km, 330m dénivelé]]></desc>
  </metadata>
  <trk>
    <name><![CDATA[randogps32-49]]></name>
    <trkseg>
      <trkpt lat="43.48568" lon="0.84393">
        <ele>280</ele>
        <time>2020-01-26T07:43:29Z</time>
      </trkpt>
      <trkpt lat="43.48523" lon="0.84487">
        <ele>273</ele>
        <time>2020-01-26T07:45:18Z</time>
      </trkpt>
      <trkpt lat="43.48508" lon="0.8455">
        <ele>269</ele>
        <time>2020-01-26T07:46:22Z</time>
      </trkpt>
      <trkpt lat="43.48441" lon="0.84736">
        <ele>253</ele>
        <time>2020-01-26T07:49:43Z</time>
      </trkpt>
      <trkpt lat="43.48403" lon="0.84919">
        <ele>244</ele>
        <time>2020-01-26T07:52:48Z</time>
      </trkpt>
      <trkpt lat="43.48452" lon="0.85045">
        <ele>232</ele>
        <time>2020-01-26T07:55:06Z</time>
      </trkpt>
      <trkpt lat="43.48477" lon="0.85193">
        <ele>223</ele>
        <time>2020-01-26T07:57:33Z</time>
      </trkpt>
      <trkpt lat="43.48456" lon="0.85314">
        <ele>216</ele>
        <time>2020-01-26T07:59:34Z</time>
      </trkpt>
      <trkpt lat="43.48252" lon="0.85245">
        <ele>205</ele>
        <time>2020-01-26T08:04:14Z</time>
      </trkpt>
      <trkpt lat="43.48224" lon="0.85331">
        <ele>204</ele>
        <time>2020-01-26T08:05:45Z</time>
      </trkpt>
      <trkpt lat="43.48179" lon="0.85457">
        <ele>207</ele>
        <time>2020-01-26T08:08:01Z</time>
      </trkpt>
      <trkpt lat="43.48047" lon="0.85623">
        <ele>221</ele>
        <time>2020-01-26T08:12:00Z</time>
      </trkpt>
      <trkpt lat="43.47986" lon="0.85723">
        <ele>229</ele>
        <time>2020-01-26T08:14:06Z</time>
      </trkpt>
      <trkpt lat="43.47935" lon="0.85753">
        <ele>232</ele>
        <time>2020-01-26T08:15:20Z</time>
      </trkpt>
      <trkpt lat="43.47894" lon="0.85753">
        <ele>234</ele>
        <time>2020-01-26T08:16:15Z</time>
      </trkpt>
      <trkpt lat="43.47749" lon="0.85657">
        <ele>248</ele>
        <time>2020-01-26T08:19:50Z</time>
      </trkpt>
      <trkpt lat="43.47569" lon="0.85584">
        <ele>247</ele>
        <time>2020-01-26T08:24:00Z</time>
      </trkpt>
      <trkpt lat="43.47479" lon="0.85545">
        <ele>263</ele>
        <time>2020-01-26T08:26:06Z</time>
      </trkpt>
      <trkpt lat="43.47393" lon="0.85481">
        <ele>276</ele>
        <time>2020-01-26T08:28:16Z</time>
      </trkpt>
      <trkpt lat="43.47362" lon="0.85627">
        <ele>277</ele>
        <time>2020-01-26T08:30:44Z</time>
      </trkpt>
      <trkpt lat="43.47376" lon="0.85906">
        <ele>280</ele>
        <time>2020-01-26T08:35:14Z</time>
      </trkpt>
      <trkpt lat="43.47379" lon="0.8608">
        <ele>284</ele>
        <time>2020-01-26T08:38:03Z</time>
      </trkpt>
      <trkpt lat="43.47401" lon="0.86155">
        <ele>280</ele>
        <time>2020-01-26T08:39:21Z</time>
      </trkpt>
      <trkpt lat="43.47447" lon="0.86275">
        <ele>269</ele>
        <time>2020-01-26T08:41:33Z</time>
      </trkpt>
      <trkpt lat="43.47508" lon="0.86444">
        <ele>275</ele>
        <time>2020-01-26T08:44:35Z</time>
      </trkpt>
      <trkpt lat="43.47528" lon="0.86577">
        <ele>271</ele>
        <time>2020-01-26T08:46:47Z</time>
      </trkpt>
      <trkpt lat="43.47524" lon="0.86659">
        <ele>267</ele>
        <time>2020-01-26T08:48:07Z</time>
      </trkpt>
      <trkpt lat="43.47496" lon="0.86781">
        <ele>271</ele>
        <time>2020-01-26T08:50:11Z</time>
      </trkpt>
      <trkpt lat="43.47636" lon="0.87007">
        <ele>255</ele>
        <time>2020-01-26T08:54:58Z</time>
      </trkpt>
      <trkpt lat="43.47654" lon="0.87193">
        <ele>245</ele>
        <time>2020-01-26T08:58:00Z</time>
      </trkpt>
      <trkpt lat="43.47759" lon="0.87292">
        <ele>246</ele>
        <time>2020-01-26T09:00:50Z</time>
      </trkpt>
      <trkpt lat="43.47938" lon="0.87414">
        <ele>244</ele>
        <time>2020-01-26T09:05:16Z</time>
      </trkpt>
      <trkpt lat="43.47977" lon="0.87481">
        <ele>241</ele>
        <time>2020-01-26T09:06:39Z</time>
      </trkpt>
      <trkpt lat="43.48017" lon="0.87629">
        <ele>242</ele>
        <time>2020-01-26T09:09:12Z</time>
      </trkpt>
      <trkpt lat="43.48034" lon="0.87745">
        <ele>234</ele>
        <time>2020-01-26T09:11:07Z</time>
      </trkpt>
      <trkpt lat="43.48055" lon="0.87828">
        <ele>231</ele>
        <time>2020-01-26T09:12:32Z</time>
      </trkpt>
      <trkpt lat="43.48061" lon="0.87906">
        <ele>232</ele>
        <time>2020-01-26T09:13:48Z</time>
      </trkpt>
      <trkpt lat="43.48089" lon="0.87989">
        <ele>234</ele>
        <time>2020-01-26T09:15:17Z</time>
      </trkpt>
      <trkpt lat="43.48089" lon="0.88067">
        <ele>235</ele>
        <time>2020-01-26T09:16:32Z</time>
      </trkpt>
      <trkpt lat="43.48132" lon="0.88125">
        <ele>235</ele>
        <time>2020-01-26T09:17:52Z</time>
      </trkpt>
      <trkpt lat="43.48206" lon="0.88204">
        <ele>243</ele>
        <time>2020-01-26T09:19:57Z</time>
      </trkpt>
      <trkpt lat="43.4833" lon="0.88303">
        <ele>246</ele>
        <time>2020-01-26T09:23:09Z</time>
      </trkpt>
      <trkpt lat="43.48377" lon="0.88487">
        <ele>250</ele>
        <time>2020-01-26T09:26:17Z</time>
      </trkpt>
      <trkpt lat="43.48375" lon="0.88573">
        <ele>250</ele>
        <time>2020-01-26T09:27:41Z</time>
      </trkpt>
      <trkpt lat="43.4836" lon="0.88618">
        <ele>249</ele>
        <time>2020-01-26T09:28:29Z</time>
      </trkpt>
      <trkpt lat="43.48417" lon="0.88657">
        <ele>256</ele>
        <time>2020-01-26T09:29:54Z</time>
      </trkpt>
      <trkpt lat="43.48428" lon="0.88708">
        <ele>254</ele>
        <time>2020-01-26T09:30:45Z</time>
      </trkpt>
      <trkpt lat="43.48436" lon="0.88788">
        <ele>254</ele>
        <time>2020-01-26T09:32:03Z</time>
      </trkpt>
      <trkpt lat="43.48506" lon="0.88811">
        <ele>248</ele>
        <time>2020-01-26T09:33:39Z</time>
      </trkpt>
      <trkpt lat="43.48561" lon="0.88788">
        <ele>241</ele>
        <time>2020-01-26T09:34:56Z</time>
      </trkpt>
      <trkpt lat="43.48673" lon="0.88665">
        <ele>234</ele>
        <time>2020-01-26T09:38:07Z</time>
      </trkpt>
      <trkpt lat="43.48799" lon="0.88798">
        <ele>224</ele>
        <time>2020-01-26T09:41:39Z</time>
      </trkpt>
      <trkpt lat="43.48846" lon="0.88839">
        <ele>224</ele>
        <time>2020-01-26T09:42:53Z</time>
      </trkpt>
      <trkpt lat="43.48884" lon="0.88916">
        <ele>224</ele>
        <time>2020-01-26T09:44:23Z</time>
      </trkpt>
      <trkpt lat="43.49034" lon="0.88777">
        <ele>219</ele>
        <time>2020-01-26T09:48:25Z</time>
      </trkpt>
      <trkpt lat="43.49264" lon="0.88539">
        <ele>210</ele>
        <time>2020-01-26T09:54:48Z</time>
      </trkpt>
      <trkpt lat="43.49333" lon="0.88479">
        <ele>210</ele>
        <time>2020-01-26T09:56:37Z</time>
      </trkpt>
      <trkpt lat="43.49456" lon="0.88414">
        <ele>206</ele>
        <time>2020-01-26T09:59:33Z</time>
      </trkpt>
      <trkpt lat="43.49613" lon="0.88371">
        <ele>196</ele>
        <time>2020-01-26T10:03:07Z</time>
      </trkpt>
      <trkpt lat="43.49778" lon="0.88275">
        <ele>184</ele>
        <time>2020-01-26T10:07:06Z</time>
      </trkpt>
      <trkpt lat="43.49817" lon="0.88148">
        <ele>184</ele>
        <time>2020-01-26T10:09:19Z</time>
      </trkpt>
      <trkpt lat="43.49717" lon="0.87985">
        <ele>186</ele>
        <time>2020-01-26T10:12:46Z</time>
      </trkpt>
      <trkpt lat="43.49602" lon="0.87781">
        <ele>189</ele>
        <time>2020-01-26T10:16:56Z</time>
      </trkpt>
      <trkpt lat="43.49471" lon="0.87685">
        <ele>189</ele>
        <time>2020-01-26T10:20:14Z</time>
      </trkpt>
      <trkpt lat="43.49568" lon="0.87373">
        <ele>199</ele>
        <time>2020-01-26T10:25:42Z</time>
      </trkpt>
      <trkpt lat="43.49582" lon="0.87268">
        <ele>202</ele>
        <time>2020-01-26T10:27:26Z</time>
      </trkpt>
      <trkpt lat="43.49548" lon="0.8718">
        <ele>202</ele>
        <time>2020-01-26T10:29:02Z</time>
      </trkpt>
      <trkpt lat="43.49596" lon="0.86833">
        <ele>220</ele>
        <time>2020-01-26T10:34:44Z</time>
      </trkpt>
      <trkpt lat="43.4966" lon="0.86614">
        <ele>226</ele>
        <time>2020-01-26T10:38:33Z</time>
      </trkpt>
      <trkpt lat="43.49692" lon="0.86479">
        <ele>231</ele>
        <time>2020-01-26T10:40:50Z</time>
      </trkpt>
      <trkpt lat="43.49772" lon="0.86273">
        <ele>243</ele>
        <time>2020-01-26T10:44:37Z</time>
      </trkpt>
      <trkpt lat="43.49772" lon="0.86241">
        <ele>244</ele>
        <time>2020-01-26T10:45:07Z</time>
      </trkpt>
      <trkpt lat="43.49874" lon="0.86017">
        <ele>252</ele>
        <time>2020-01-26T10:49:24Z</time>
      </trkpt>
      <trkpt lat="43.49909" lon="0.85951">
        <ele>255</ele>
        <time>2020-01-26T10:50:43Z</time>
      </trkpt>
      <trkpt lat="43.49944" lon="0.85816">
        <ele>261</ele>
        <time>2020-01-26T10:53:01Z</time>
      </trkpt>
      <trkpt lat="43.49946" lon="0.85786">
        <ele>264</ele>
        <time>2020-01-26T10:53:31Z</time>
      </trkpt>
      <trkpt lat="43.49965" lon="0.85704">
        <ele>273</ele>
        <time>2020-01-26T10:54:54Z</time>
      </trkpt>
      <trkpt lat="43.49977" lon="0.85603">
        <ele>281</ele>
        <time>2020-01-26T10:56:33Z</time>
      </trkpt>
      <trkpt lat="43.50005" lon="0.8552">
        <ele>281</ele>
        <time>2020-01-26T10:58:02Z</time>
      </trkpt>
      <trkpt lat="43.50053" lon="0.85466">
        <ele>279</ele>
        <time>2020-01-26T10:59:24Z</time>
      </trkpt>
      <trkpt lat="43.5008" lon="0.85419">
        <ele>281</ele>
        <time>2020-01-26T11:00:22Z</time>
      </trkpt>
      <trkpt lat="43.5006" lon="0.85389">
        <ele>275</ele>
        <time>2020-01-26T11:01:02Z</time>
      </trkpt>
      <trkpt lat="43.50103" lon="0.85286">
        <ele>274</ele>
        <time>2020-01-26T11:02:57Z</time>
      </trkpt>
      <trkpt lat="43.50144" lon="0.85159">
        <ele>276</ele>
        <time>2020-01-26T11:05:11Z</time>
      </trkpt>
      <trkpt lat="43.50155" lon="0.85056">
        <ele>279</ele>
        <time>2020-01-26T11:06:52Z</time>
      </trkpt>
      <trkpt lat="43.50167" lon="0.85045">
        <ele>281</ele>
        <time>2020-01-26T11:07:11Z</time>
      </trkpt>
      <trkpt lat="43.50138" lon="0.84944">
        <ele>284</ele>
        <time>2020-01-26T11:08:56Z</time>
      </trkpt>
      <trkpt lat="43.50119" lon="0.84719">
        <ele>283</ele>
        <time>2020-01-26T11:12:36Z</time>
      </trkpt>
      <trkpt lat="43.50083" lon="0.84513">
        <ele>284</ele>
        <time>2020-01-26T11:16:01Z</time>
      </trkpt>
      <trkpt lat="43.50102" lon="0.84382">
        <ele>286</ele>
        <time>2020-01-26T11:18:10Z</time>
      </trkpt>
      <trkpt lat="43.50061" lon="0.84251">
        <ele>292</ele>
        <time>2020-01-26T11:20:28Z</time>
      </trkpt>
      <trkpt lat="43.50002" lon="0.84168">
        <ele>293</ele>
        <time>2020-01-26T11:22:21Z</time>
      </trkpt>
      <trkpt lat="43.4993" lon="0.84058">
        <ele>287</ele>
        <time>2020-01-26T11:24:44Z</time>
      </trkpt>
      <trkpt lat="43.49871" lon="0.84018">
        <ele>289</ele>
        <time>2020-01-26T11:26:12Z</time>
      </trkpt>
      <trkpt lat="43.4984" lon="0.83951">
        <ele>294</ele>
        <time>2020-01-26T11:27:29Z</time>
      </trkpt>
      <trkpt lat="43.49789" lon="0.83758">
        <ele>294</ele>
        <time>2020-01-26T11:30:48Z</time>
      </trkpt>
      <trkpt lat="43.4978" lon="0.83526">
        <ele>299</ele>
        <time>2020-01-26T11:34:33Z</time>
      </trkpt>
      <trkpt lat="43.49669" lon="0.83459">
        <ele>290</ele>
        <time>2020-01-26T11:37:14Z</time>
      </trkpt>
      <trkpt lat="43.4959" lon="0.83405">
        <ele>283</ele>
        <time>2020-01-26T11:39:12Z</time>
      </trkpt>
      <trkpt lat="43.49564" lon="0.83459">
        <ele>280</ele>
        <time>2020-01-26T11:40:15Z</time>
      </trkpt>
      <trkpt lat="43.49514" lon="0.83394">
        <ele>278</ele>
        <time>2020-01-26T11:41:46Z</time>
      </trkpt>
      <trkpt lat="43.49428" lon="0.83386">
        <ele>277</ele>
        <time>2020-01-26T11:43:41Z</time>
      </trkpt>
      <trkpt lat="43.49391" lon="0.83264">
        <ele>266</ele>
        <time>2020-01-26T11:45:49Z</time>
      </trkpt>
      <trkpt lat="43.4937" lon="0.83033">
        <ele>244</ele>
        <time>2020-01-26T11:49:35Z</time>
      </trkpt>
      <trkpt lat="43.49297" lon="0.82845">
        <ele>227</ele>
        <time>2020-01-26T11:53:01Z</time>
      </trkpt>
      <trkpt lat="43.4937" lon="0.82636">
        <ele>219</ele>
        <time>2020-01-26T11:56:46Z</time>
      </trkpt>
      <trkpt lat="43.4937" lon="0.82571">
        <ele>215</ele>
        <time>2020-01-26T11:57:49Z</time>
      </trkpt>
      <trkpt lat="43.49441" lon="0.82365">
        <ele>212</ele>
        <time>2020-01-26T12:01:30Z</time>
      </trkpt>
      <trkpt lat="43.49352" lon="0.82347">
        <ele>213</ele>
        <time>2020-01-26T12:03:30Z</time>
      </trkpt>
      <trkpt lat="43.49378" lon="0.8221">
        <ele>213</ele>
        <time>2020-01-26T12:05:47Z</time>
      </trkpt>
      <trkpt lat="43.49422" lon="0.82123">
        <ele>215</ele>
        <time>2020-01-26T12:07:29Z</time>
      </trkpt>
      <trkpt lat="43.49422" lon="0.81921">
        <ele>226</ele>
        <time>2020-01-26T12:10:45Z</time>
      </trkpt>
      <trkpt lat="43.49339" lon="0.81929">
        <ele>228</ele>
        <time>2020-01-26T12:12:36Z</time>
      </trkpt>
      <trkpt lat="43.49195" lon="0.81864">
        <ele>228</ele>
        <time>2020-01-26T12:15:58Z</time>
      </trkpt>
      <trkpt lat="43.49124" lon="0.81892">
        <ele>225</ele>
        <time>2020-01-26T12:17:37Z</time>
      </trkpt>
      <trkpt lat="43.49053" lon="0.81907">
        <ele>224</ele>
        <time>2020-01-26T12:19:13Z</time>
      </trkpt>
      <trkpt lat="43.48988" lon="0.81975">
        <ele>222</ele>
        <time>2020-01-26T12:21:01Z</time>
      </trkpt>
      <trkpt lat="43.48857" lon="0.81983">
        <ele>219</ele>
        <time>2020-01-26T12:23:56Z</time>
      </trkpt>
      <trkpt lat="43.48695" lon="0.81903">
        <ele>223</ele>
        <time>2020-01-26T12:27:46Z</time>
      </trkpt>
      <trkpt lat="43.48551" lon="0.81871">
        <ele>223</ele>
        <time>2020-01-26T12:31:01Z</time>
      </trkpt>
      <trkpt lat="43.48477" lon="0.81849">
        <ele>223</ele>
        <time>2020-01-26T12:32:42Z</time>
      </trkpt>
      <trkpt lat="43.48417" lon="0.81791">
        <ele>224</ele>
        <time>2020-01-26T12:34:20Z</time>
      </trkpt>
      <trkpt lat="43.4827" lon="0.82022">
        <ele>223</ele>
        <time>2020-01-26T12:39:17Z</time>
      </trkpt>
      <trkpt lat="43.48289" lon="0.82167">
        <ele>225</ele>
        <time>2020-01-26T12:41:40Z</time>
      </trkpt>
      <trkpt lat="43.48268" lon="0.82257">
        <ele>228</ele>
        <time>2020-01-26T12:43:11Z</time>
      </trkpt>
      <trkpt lat="43.48281" lon="0.82463">
        <ele>233</ele>
        <time>2020-01-26T12:46:31Z</time>
      </trkpt>
      <trkpt lat="43.48226" lon="0.82697">
        <ele>237</ele>
        <time>2020-01-26T12:50:30Z</time>
      </trkpt>
      <trkpt lat="43.48215" lon="0.82802">
        <ele>242</ele>
        <time>2020-01-26T12:52:12Z</time>
      </trkpt>
      <trkpt lat="43.48051" lon="0.83119">
        <ele>267</ele>
        <time>2020-01-26T12:58:29Z</time>
      </trkpt>
      <trkpt lat="43.48019" lon="0.83303">
        <ele>283</ele>
        <time>2020-01-26T13:01:33Z</time>
      </trkpt>
      <trkpt lat="43.47993" lon="0.83397">
        <ele>287</ele>
        <time>2020-01-26T13:03:10Z</time>
      </trkpt>
      <trkpt lat="43.48043" lon="0.83415">
        <ele>292</ele>
        <time>2020-01-26T13:04:19Z</time>
      </trkpt>
      <trkpt lat="43.48087" lon="0.83379">
        <ele>292</ele>
        <time>2020-01-26T13:05:27Z</time>
      </trkpt>
      <trkpt lat="43.48126" lon="0.8343">
        <ele>291</ele>
        <time>2020-01-26T13:06:39Z</time>
      </trkpt>
      <trkpt lat="43.48145" lon="0.83488">
        <ele>291</ele>
        <time>2020-01-26T13:07:41Z</time>
      </trkpt>
      <trkpt lat="43.48231" lon="0.83462">
        <ele>281</ele>
        <time>2020-01-26T13:09:38Z</time>
      </trkpt>
      <trkpt lat="43.48328" lon="0.83484">
        <ele>277</ele>
        <time>2020-01-26T13:11:49Z</time>
      </trkpt>
      <trkpt lat="43.48294" lon="0.83697">
        <ele>262</ele>
        <time>2020-01-26T13:15:20Z</time>
      </trkpt>
      <trkpt lat="43.48344" lon="0.83765">
        <ele>254</ele>
        <time>2020-01-26T13:16:54Z</time>
      </trkpt>
      <trkpt lat="43.48388" lon="0.83823">
        <ele>257</ele>
        <time>2020-01-26T13:18:15Z</time>
      </trkpt>
      <trkpt lat="43.48404" lon="0.83903">
        <ele>251</ele>
        <time>2020-01-26T13:19:36Z</time>
      </trkpt>
      <trkpt lat="43.48511" lon="0.83848">
        <ele>257</ele>
        <time>2020-01-26T13:22:08Z</time>
      </trkpt>
      <trkpt lat="43.4859" lon="0.83755">
        <ele>255</ele>
        <time>2020-01-26T13:24:27Z</time>
      </trkpt>
      <trkpt lat="43.48637" lon="0.83787">
        <ele>252</ele>
        <time>2020-01-26T13:25:37Z</time>
      </trkpt>
      <trkpt lat="43.48632" lon="0.83921">
        <ele>255</ele>
        <time>2020-01-26T13:27:47Z</time>
      </trkpt>
      <trkpt lat="43.48645" lon="0.84141">
        <ele>275</ele>
        <time>2020-01-26T13:31:20Z</time>
      </trkpt>
      <trkpt lat="43.48637" lon="0.84249">
        <ele>277</ele>
        <time>2020-01-26T13:33:05Z</time>
      </trkpt>
      <trkpt lat="43.48582" lon="0.8435">
        <ele>279</ele>
        <time>2020-01-26T13:35:08Z</time>
      </trkpt>
    </trkseg>
  </trk>
</gpx>